Terminal Aerodrome Forecast
Issued by NWS

Home | Current Version | Previous Version | Text Only | Print | Product List | Glossary On
Versions: 1 2 3 4 5 6 7 8 9 10 11 12 13 14
000
FTUS43 KICT 261132
TAFRSL
TAF
KRSL 261132Z 2612/2712 19014KT P6SM SCT100 BKN250
     FM261500 21015G22KT P6SM SCT100 BKN250
     FM262000 31012KT P6SM VCTS BKN080CB
     FM270000 36014G20KT P6SM VCSH BKN080=

USA.gov is the U.S. government's official web portal to all federal, state and local government web resources and services.